createdAt,value
2018-02-03T00:09:28.950Z,9.32
2018-02-03T00:11:59.097Z,11.02
2018-02-03T00:14:27.845Z,12.85
2018-02-03T00:16:56.816Z,11.02
2018-02-03T00:19:25.729Z,8.55
2018-02-03T00:21:55.325Z,10.18
2018-02-03T00:24:25.251Z,10.15
2018-02-03T00:26:55.349Z,9.93
2018-02-03T00:29:23.664Z,17.80
2018-02-03T00:49:11.886Z,14.50
2018-02-03T00:51:42.205Z,16.17
2018-02-03T00:54:10.261Z,11.80
2018-02-03T00:56:39.253Z,13.02
2018-02-03T00:59:07.477Z,15.20
2018-02-03T01:01:35.923Z,9.70
2018-02-03T01:04:04.677Z,9.45
2018-02-03T01:06:33.016Z,17.48
2018-02-03T01:26:18.445Z,11.40
2018-02-03T01:28:47.583Z,9.50
2018-02-03T01:31:16.088Z,15.40
2018-02-03T01:33:45.474Z,11.18
2018-02-03T01:36:14.645Z,11.82
2018-02-03T01:38:43.158Z,15.45
2018-02-03T01:41:11.966Z,10.88
2018-02-03T01:43:41.266Z,11.82
2018-02-03T01:46:09.989Z,11.23
2018-02-03T02:05:58.631Z,10.93
2018-02-03T02:08:27.886Z,15.25
2018-02-03T02:10:56.824Z,13.73
2018-02-03T02:13:26.144Z,12.30
2018-02-03T02:15:55.089Z,13.57
2018-02-03T02:18:24.515Z,18.15
2018-02-03T02:20:54.109Z,14.70
2018-02-03T02:23:22.777Z,11.93
2018-02-03T02:25:51.620Z,10.48
2018-02-03T02:45:35.888Z,13.98
2018-02-03T02:48:04.104Z,13.55
2018-02-03T02:50:32.872Z,14.55
2018-02-03T02:53:01.181Z,17.98
2018-02-03T02:55:30.778Z,13.35
2018-02-03T02:57:59.034Z,15.65
2018-02-03T03:00:28.144Z,11.50
2018-02-03T03:02:57.382Z,13.43
2018-02-03T03:05:26.035Z,15.40
2018-02-03T03:25:12.009Z,13.32
2018-02-03T03:27:40.491Z,11.63
2018-02-03T03:30:10.166Z,9.90
2018-02-03T03:32:39.356Z,12.30
2018-02-03T03:35:08.683Z,10.98
2018-02-03T03:37:37.796Z,10.25
2018-02-03T03:40:06.074Z,8.70
2018-02-03T03:42:35.467Z,11.30
2018-02-03T03:45:05.238Z,11.90
2018-02-03T04:04:50.246Z,13.75
2018-02-03T04:07:18.596Z,11.85
2018-02-03T04:09:47.196Z,15.20
2018-02-03T04:12:16.836Z,14.85
2018-02-03T04:14:44.947Z,12.20
2018-02-03T04:17:13.656Z,19.52
2018-02-03T04:19:42.333Z,17.37
2018-02-03T04:22:11.803Z,14.18
2018-02-03T04:24:40.552Z,15.20
2018-02-03T04:44:26.555Z,12.60
2018-02-03T04:46:55.270Z,16.52
2018-02-03T04:49:23.794Z,12.05
2018-02-03T04:51:53.386Z,13.52
2018-02-03T04:54:21.954Z,19.50
2018-02-03T04:56:50.455Z,17.52
2018-02-03T04:59:19.166Z,13.35
2018-02-03T05:01:48.104Z,13.00
2018-02-03T05:04:17.057Z,14.43
2018-02-03T05:24:03.425Z,10.85
2018-02-03T05:26:32.402Z,11.12
2018-02-03T05:29:01.464Z,14.43
2018-02-03T05:31:30.334Z,15.05
2018-02-03T05:33:58.595Z,12.05
2018-02-03T05:36:26.938Z,15.65
2018-02-03T05:38:55.571Z,15.35
2018-02-03T05:41:24.174Z,17.52
2018-02-03T05:43:53.742Z,22.45
2018-02-03T06:03:39.582Z,16.02
2018-02-03T06:06:08.779Z,16.87
2018-02-03T06:08:37.081Z,13.70
2018-02-03T06:11:06.425Z,13.35
2018-02-03T06:13:34.930Z,19.48
2018-02-03T06:16:03.115Z,17.77
2018-02-03T06:18:32.433Z,13.98
2018-02-03T06:21:01.610Z,12.35
2018-02-03T06:23:29.816Z,18.27
2018-02-03T06:43:16.412Z,15.68
2018-02-03T06:45:45.453Z,16.35
2018-02-03T06:48:14.362Z,20.92
2018-02-03T06:50:42.540Z,13.88
2018-02-03T06:53:11.225Z,16.08
2018-02-03T06:55:40.773Z,15.98
2018-02-03T06:58:09.416Z,18.25
2018-02-03T07:00:39.978Z,15.13
2018-02-03T07:03:09.062Z,18.20
2018-02-03T07:22:54.748Z,17.58
2018-02-03T07:25:23.121Z,16.30
2018-02-03T07:27:51.884Z,18.65
2018-02-03T07:30:21.107Z,17.65
2018-02-03T07:32:49.804Z,28.67
2018-02-03T07:35:18.222Z,18.52
2018-02-03T07:37:47.205Z,18.37
2018-02-03T07:40:15.300Z,20.35
2018-02-03T07:42:44.602Z,19.23
2018-02-03T08:02:31.561Z,12.55
2018-02-03T08:05:00.917Z,13.68
2018-02-03T08:07:29.545Z,14.70
2018-02-03T08:09:58.626Z,15.35
2018-02-03T08:12:27.096Z,12.45
2018-02-03T08:14:55.831Z,16.65
2018-02-03T08:17:23.995Z,14.43
2018-02-03T08:19:53.518Z,19.83
2018-02-03T08:22:21.681Z,16.17
2018-02-03T08:42:06.869Z,11.55
2018-02-03T08:44:36.430Z,26.25
2018-02-03T08:47:04.906Z,17.40
2018-02-03T08:49:34.063Z,14.38
2018-02-03T08:52:03.444Z,11.52
2018-02-03T08:54:33.192Z,16.70
2018-02-03T08:57:01.500Z,13.90
2018-02-03T08:59:30.413Z,14.30
2018-02-03T09:01:58.680Z,15.73
2018-02-03T09:21:44.581Z,13.82
2018-02-03T09:24:14.046Z,15.48
2018-02-03T09:26:42.256Z,13.57
2018-02-03T09:29:13.171Z,13.70
2018-02-03T09:31:41.436Z,13.35
2018-02-03T09:34:10.154Z,12.77
2018-02-03T09:36:39.334Z,13.52
2018-02-03T09:39:08.756Z,13.38
2018-02-03T09:41:37.243Z,15.25
2018-02-03T10:01:24.348Z,12.70
2018-02-03T10:03:52.516Z,14.45
2018-02-03T10:06:21.467Z,13.62
2018-02-03T10:08:49.982Z,13.93
2018-02-03T10:11:18.872Z,16.83
2018-02-03T10:13:47.473Z,14.38
2018-02-03T10:16:16.539Z,13.80
2018-02-03T10:18:45.005Z,16.50
2018-02-03T10:21:13.553Z,10.43
2018-02-03T10:40:59.078Z,13.35
2018-02-03T10:43:27.953Z,15.38
2018-02-03T10:45:56.363Z,15.30
2018-02-03T10:48:25.739Z,13.55
2018-02-03T10:50:54.934Z,13.70
2018-02-03T10:53:23.936Z,14.45
2018-02-03T10:55:53.199Z,13.52
2018-02-03T10:58:21.717Z,12.35
2018-02-03T11:00:50.440Z,13.85
2018-02-03T11:20:36.059Z,15.23
2018-02-03T11:23:04.600Z,14.13
2018-02-03T11:25:33.873Z,8.97
2018-02-03T11:28:03.742Z,11.13
2018-02-03T11:30:33.398Z,11.77
2018-02-03T11:33:01.999Z,11.43
2018-02-03T11:35:30.197Z,16.40
2018-02-03T11:37:59.720Z,11.00
2018-02-03T11:40:28.649Z,9.57
2018-02-03T12:00:13.294Z,9.43
2018-02-03T12:02:42.574Z,14.07
2018-02-03T12:05:11.256Z,14.80
2018-02-03T12:07:41.588Z,14.50
2018-02-03T12:10:10.859Z,12.17
2018-02-03T12:12:39.038Z,9.50
2018-02-03T12:15:07.389Z,9.77
2018-02-03T12:17:35.922Z,11.97
2018-02-03T12:20:04.684Z,8.90
2018-02-03T12:39:50.967Z,10.53
2018-02-03T12:42:20.593Z,12.33
2018-02-03T12:44:50.234Z,12.10
2018-02-03T12:47:19.347Z,8.17
2018-02-03T12:49:47.679Z,9.30
2018-02-03T12:52:17.997Z,9.80
2018-02-03T12:54:47.322Z,7.03
2018-02-03T12:57:16.378Z,8.47
2018-02-03T13:20:31.677Z,7.67
2018-02-03T13:23:00.678Z,8.70
2018-02-03T13:25:29.435Z,6.17
2018-02-03T13:27:58.366Z,8.17
2018-02-03T13:30:28.510Z,8.03
2018-02-03T13:32:57.508Z,7.77
2018-02-03T13:35:26.127Z,9.03
2018-02-03T13:37:54.444Z,7.30
2018-02-03T13:40:23.335Z,9.47
2018-02-03T14:00:11.191Z,10.07
2018-02-03T14:02:40.563Z,7.27
2018-02-03T14:05:09.488Z,7.53
2018-02-03T14:07:37.581Z,10.13
2018-02-03T14:10:06.210Z,7.40
2018-02-03T14:12:36.154Z,10.47
2018-02-03T14:15:05.087Z,8.87
2018-02-03T14:17:33.320Z,9.33
2018-02-03T14:20:02.372Z,7.50
2018-02-03T14:39:46.824Z,5.93
2018-02-03T14:42:17.014Z,8.00
2018-02-03T14:44:45.630Z,5.93
2018-02-03T14:47:14.298Z,7.27
2018-02-03T14:49:42.600Z,5.00
2018-02-03T14:52:11.465Z,9.00
2018-02-03T14:54:41.686Z,8.60
2018-02-03T14:57:11.243Z,5.70
2018-02-03T14:59:40.684Z,8.30
2018-02-03T15:19:26.656Z,9.27
2018-02-03T15:21:55.078Z,11.47
2018-02-03T15:24:23.450Z,11.23
2018-02-03T15:26:52.435Z,10.27
2018-02-03T15:29:20.850Z,11.20
2018-02-03T15:31:50.062Z,11.35
2018-02-03T15:34:19.691Z,12.17
2018-02-03T15:36:49.123Z,8.60
2018-02-03T15:39:18.302Z,13.02
2018-02-03T15:59:04.210Z,11.73
2018-02-03T16:01:33.718Z,11.68
2018-02-03T16:04:02.108Z,16.80
2018-02-03T16:06:30.350Z,14.75
2018-02-03T16:08:59.072Z,15.35
2018-02-03T16:11:28.380Z,13.10
2018-02-03T16:13:57.039Z,19.40
2018-02-03T16:16:26.135Z,18.30
2018-02-03T16:18:54.721Z,17.48
2018-02-03T16:38:41.481Z,22.98
2018-02-03T16:41:10.360Z,24.08
2018-02-03T16:43:38.742Z,18.83
2018-02-03T16:46:06.923Z,16.87
2018-02-03T16:48:35.561Z,16.17
2018-02-03T16:51:05.229Z,17.83
2018-02-03T16:53:33.642Z,15.18
2018-02-03T16:56:02.710Z,16.35
2018-02-03T16:58:31.233Z,19.25
2018-02-03T17:18:17.161Z,18.02
2018-02-03T17:20:45.401Z,18.85
2018-02-03T17:23:15.078Z,16.20
2018-02-03T17:25:43.807Z,26.00
2018-02-03T17:28:12.351Z,17.10
2018-02-03T17:30:41.593Z,21.80
2018-02-03T17:33:10.396Z,19.08
2018-02-03T17:35:39.096Z,15.65
2018-02-03T17:38:09.014Z,18.35
2018-02-03T17:57:55.400Z,22.00
2018-02-03T18:00:23.965Z,24.92
2018-02-03T18:02:52.400Z,15.95
2018-02-03T18:05:21.199Z,18.17
2018-02-03T18:07:49.441Z,19.35
2018-02-03T18:10:19.101Z,16.95
2018-02-03T18:12:48.222Z,17.33
2018-02-03T18:15:16.730Z,15.50
2018-02-03T18:17:45.798Z,17.98
2018-02-03T18:37:32.337Z,17.23
2018-02-03T18:40:00.584Z,20.77
2018-02-03T18:42:29.008Z,17.50
2018-02-03T18:44:57.485Z,26.52
2018-02-03T18:47:25.654Z,22.35
2018-02-03T18:49:54.757Z,22.60
2018-02-03T18:52:23.968Z,21.80
2018-02-03T18:54:52.480Z,20.48
2018-02-03T18:57:21.001Z,17.42
2018-02-03T19:17:05.610Z,23.20
2018-02-03T19:19:34.273Z,18.17
2018-02-03T19:22:02.764Z,21.40
2018-02-03T19:24:31.806Z,17.75
2018-02-03T19:27:00.690Z,19.65
2018-02-03T19:29:30.175Z,18.27
2018-02-03T19:31:59.854Z,20.17
2018-02-03T19:34:28.782Z,19.15
2018-02-03T19:36:57.819Z,22.33
2018-02-03T19:56:43.535Z,18.52
2018-02-03T19:59:11.919Z,20.65
2018-02-03T20:01:41.955Z,25.73
2018-02-03T20:04:11.143Z,18.70
2018-02-03T20:06:40.530Z,19.33
2018-02-03T20:09:09.405Z,20.80
2018-02-03T20:11:38.764Z,18.60
2018-02-03T20:14:07.787Z,17.20
2018-02-03T20:16:36.510Z,22.60
2018-02-03T20:36:22.503Z,17.62
2018-02-03T20:38:51.846Z,19.55
2018-02-03T20:41:20.558Z,22.02
2018-02-03T20:43:48.672Z,21.55
2018-02-03T20:46:16.916Z,24.17
2018-02-03T20:48:46.053Z,23.85
2018-02-03T20:51:17.077Z,22.75
2018-02-03T20:53:45.739Z,22.50
2018-02-03T20:56:17.094Z,26.15
2018-02-03T21:16:03.052Z,20.58
2018-02-03T21:18:31.732Z,24.58
2018-02-03T21:21:01.033Z,23.65
2018-02-03T21:23:29.803Z,22.23
2018-02-03T21:25:58.352Z,20.90
2018-02-03T21:28:26.980Z,20.27
2018-02-03T21:30:56.294Z,28.65
2018-02-03T21:33:25.346Z,23.20
2018-02-03T21:35:54.934Z,21.27
2018-02-03T21:55:39.483Z,28.12
2018-02-03T21:58:08.539Z,20.37
2018-02-03T22:00:42.205Z,23.62
2018-02-03T22:03:10.738Z,18.60
2018-02-03T22:05:40.138Z,20.65
2018-02-03T22:08:09.159Z,19.73
2018-02-03T22:10:37.791Z,24.15
2018-02-03T22:13:06.119Z,25.10
2018-02-03T22:37:01.941Z,20.27
2018-02-03T22:39:32.411Z,19.17
2018-02-03T22:42:01.229Z,24.35
2018-02-03T22:44:29.651Z,24.83
2018-02-03T22:46:59.129Z,21.70
2018-02-03T22:49:28.708Z,28.45
2018-02-03T22:51:58.310Z,23.80
2018-02-03T22:54:27.081Z,25.37
2018-02-03T22:56:56.442Z,22.98
2018-02-03T23:16:41.526Z,24.37
2018-02-03T23:19:10.743Z,24.10
2018-02-03T23:21:38.905Z,25.10
2018-02-03T23:24:08.215Z,25.30
2018-02-03T23:26:37.114Z,25.98
2018-02-03T23:29:05.814Z,27.92
2018-02-03T23:31:34.323Z,25.75
2018-02-03T23:34:03.907Z,25.48
2018-02-03T23:36:32.317Z,24.67
2018-02-03T23:56:17.417Z,23.58
2018-02-03T23:58:46.911Z,25.30
